Pagrindinis puslapis
METAR-TAF:

METAR-TAF

Oro uostai :

Holginas, Kuba

platuma: 20-47N, ilguma: 076-19W, Aukštis: 106 m

Dabartinis oras

Ataskaita buvo paskelbta 1 valandą ir 15 minutes, ne 11:50 UTC
Vėjas 2 kt nuo kintamojo kryptimis
Temperatūra 18°C
Drėgmė 100%
Slėgis 1016 hPa
Matomumas: 0200 m
Su prošvaistėmis ne aukštis 100 ft
rūkas

METAR: MUHG 231150Z VRB02KT 0200 R05///// FG BKN001 18/18 Q1016

Laikas: 08:05 (13:05 UTC)

Prognozė

Ataskaita buvo paskelbta 2 valandos ir 5 minutes, ne 11:00 UTC
Prognozė galioja nuo 23 metu 12 UTC su 24 metu 12 UTC
Vėjas 3 kt nuo kintamojo kryptimis
Matomumas: 9000 m
Išsisklaidę debesys ne aukštis 3000 ft
Laikinai
nuo 23 metu 12 UTC su 23 metu 14 UTC
Matomumas: 1000 m
rūkas
Laikinai
nuo 23 metu 19 UTC su 24 metu 00 UTC
Vėjas 8 kt iš Šiaurės/Šiaurės Rytų
Mažai debesys ne aukštis 2000 ft, Liūtiniai kamuoliniai debesys.
Su prošvaistėmis ne aukštis 3000 ft

TAF: MUHG 231100Z 2312/2412 VRB03KT 9000 SCT030 TEMPO 2312/2314 1000 FG TEMPO 2319/2400 03008KT FEW020CB BKN030

Orai ataskaitas ir orų prognozės (METAR, TAF).

turimą stotys yra geltonos ir raudonos taškus žemėlapyje.

Perkelti pele per norėdami pamatyti stoties vardą.

Tada spustelėkite, norėdami matyti oro stebėjimo ir prognozės.

Norėdami pakeisti žemėlapį: spustelėkite ant žalios mygtukų su juodo kryžiaus žemyn,; žalią mygtuką su brūkšneliu, jei norite nutolinti; arba žalių rodyklių gretimoms žemėlapius.


METAR-TAF: